This is the latest recevied weather packets stored in our database for station/object WD7OO. If no packets are shown the sender has not sent any weather packets the latest 1 day(s).
| Time | Temp. | Humidity | Pressure | Rain* | Wind** | Luminosity | Snow |
|---|---|---|---|---|---|---|---|
| 1836274651 | 22.78° C | 75% | 1019 hPa | 0 mm | 0 m/s | 0 W/m² | - |
| 1836274504 | 22.22° C | 75% | 1019.1 hPa | 0 mm | 0.45 m/s, 63° | 0 W/m² | - |
| 1836274349 | 22.78° C | 75% | 1019.1 hPa | 0 mm | 1.34 m/s, 250° | 0 W/m² | - |
| 1836274202 | 22.22° C | 75% | 1019 hPa | 0 mm | 0.89 m/s, 44° | 0 W/m² | - |
| 1836274047 | 22.78° C | 75% | 1018.9 hPa | 0 mm | 0.45 m/s, 358° | 0 W/m² | - |
| 1778058709 | 4.44° C | 81% | 1011.4 hPa | 0 mm | 0 m/s | 0 W/m² | - |
| 1778058407 | 5° C | 81% | 1011.3 hPa | 0 mm | 0 m/s | 0 W/m² | - |
| 1778058103 | 5° C | 80% | 1011.6 hPa | 0 mm | 0 m/s | 0 W/m² | - |
| 1778057800 | 5° C | 80% | 1011.4 hPa | 0 mm | 0 m/s | 0 W/m² | - |
| 1778057497 | 5° C | 79% | 1011.3 hPa | 0 mm | 0 m/s | 0 W/m² | - |
| 1778057193 | 5° C | 78% | 1011.4 hPa | 0 mm | 0 m/s | 0 W/m² | - |
| 1778056890 | 5° C | 78% | 1011.1 hPa | 0 mm | 0 m/s | 0 W/m² | - |
| 1778056587 | 5.56° C | 79% | 1010.8 hPa | 0 mm | 0 m/s | 0 W/m² | - |
| 1778056285 | 5.56° C | 80% | 1010.8 hPa | 0 mm | 0 m/s | 0 W/m² | - |
| 1778055981 | 5.56° C | 79% | 1010.5 hPa | 0 mm | 0 m/s | 0 W/m² | - |
| 1778055677 | 5.56° C | 80% | 1010.4 hPa | 0 mm | 0 m/s | 0 W/m² | - |
| 1778055375 | 6.11° C | 78% | 1010.5 hPa | 0 mm | 0 m/s | 0 W/m² | - |
| 1778055072 | 6.11° C | 77% | 1010.5 hPa | 0 mm | 0 m/s | 0 W/m² | - |
| 1778054770 | 6.67° C | 77% | 1010.4 hPa | 0 mm | 0 m/s | 0 W/m² | - |
| 1778054466 | 6.67° C | 77% | 1010.3 hPa | 0 mm | 0 m/s | 0 W/m² | - |
| 1778054164 | 7.22° C | 76% | 1010.3 hPa | 0 mm | 0 m/s | 0 W/m² | - |
| 1778053860 | 7.22° C | 75% | 1010.4 hPa | 0 mm | 0.45 m/s, 325° | 0 W/m² | - |
| 1778053559 | 7.22° C | 75% | 1010.4 hPa | 0 mm | 0 m/s | 0 W/m² | - |
| 1778053255 | 7.78° C | 75% | 1010.3 hPa | 0 mm | 0 m/s | 0 W/m² | - |
| 1778052953 | 7.78° C | 75% | 1010.3 hPa | 0 mm | 0 m/s | 0 W/m² | - |
* Rain latest hour (hover to see other rain measurements)
** Current wind speed in m/s (hover to see current wind gust speed)